createdAt,value
2022-11-30T00:00:39.798Z,7.40
2022-11-30T00:03:15.118Z,7.40
2022-11-30T00:05:41.953Z,7.40
2022-11-30T00:08:15.071Z,7.50
2022-11-30T00:10:42.567Z,7.50
2022-11-30T00:13:17.060Z,7.60
2022-11-30T00:15:50.036Z,7.60
2022-11-30T00:18:17.922Z,7.60
2022-11-30T00:20:52.075Z,7.60
2022-11-30T00:23:25.017Z,7.60
2022-11-30T00:25:58.029Z,7.60
2022-11-30T00:28:31.142Z,7.60
2022-11-30T00:31:06.145Z,7.60
2022-11-30T00:33:34.285Z,7.60
2022-11-30T00:36:14.051Z,7.60
2022-11-30T00:38:48.042Z,7.70
2022-11-30T00:41:15.619Z,7.70
2022-11-30T00:43:49.064Z,7.70
2022-11-30T00:46:16.108Z,7.70
2022-11-30T00:48:49.144Z,7.70
2022-11-30T00:51:23.142Z,7.70
2022-11-30T00:53:50.104Z,7.70
2022-11-30T00:56:24.829Z,7.70
2022-11-30T00:58:58.109Z,7.70
2022-11-30T01:01:25.002Z,7.70
2022-11-30T01:03:59.099Z,7.70
2022-11-30T01:06:32.188Z,7.70
2022-11-30T01:08:59.913Z,7.70
2022-11-30T01:11:35.143Z,7.70
2022-11-30T01:14:09.155Z,7.70
2022-11-30T01:16:42.162Z,7.70
2022-11-30T01:19:15.136Z,7.70
2022-11-30T01:21:41.930Z,7.70
2022-11-30T01:24:17.163Z,7.70
2022-11-30T01:26:43.920Z,7.70
2022-11-30T01:29:17.160Z,7.70
2022-11-30T01:31:50.128Z,7.60
2022-11-30T01:34:16.867Z,7.60
2022-11-30T01:36:50.227Z,7.70
2022-11-30T01:39:23.165Z,7.70
2022-11-30T01:41:56.167Z,7.70
2022-11-30T01:44:26.699Z,7.70
2022-11-30T01:47:05.153Z,7.70
2022-11-30T01:49:42.198Z,7.70
2022-11-30T01:52:32.182Z,7.70
2022-11-30T01:55:33.239Z,7.70
2022-11-30T01:58:14.258Z,7.70
2022-11-30T02:00:53.226Z,7.70
2022-11-30T02:03:32.483Z,7.70
2022-11-30T02:06:07.175Z,7.70
2022-11-30T02:08:43.384Z,7.70
2022-11-30T02:11:20.238Z,7.70
2022-11-30T02:13:50.068Z,7.70
2022-11-30T02:16:45.211Z,7.70
2022-11-30T02:19:12.193Z,7.70
2022-11-30T02:21:56.225Z,7.80
2022-11-30T02:24:37.060Z,7.80
2022-11-30T02:27:42.229Z,7.80
2022-11-30T02:30:13.636Z,7.80
2022-11-30T02:32:54.412Z,7.80
2022-11-30T02:35:33.228Z,7.80
2022-11-30T02:38:02.359Z,7.80
2022-11-30T02:40:36.266Z,7.70
2022-11-30T02:43:11.260Z,7.70
2022-11-30T02:45:47.180Z,7.70
2022-11-30T02:48:24.294Z,7.70
2022-11-30T02:50:54.464Z,7.70
2022-11-30T02:53:28.301Z,7.70
2022-11-30T02:55:55.298Z,7.70
2022-11-30T02:58:29.309Z,7.70
2022-11-30T03:00:56.659Z,7.70
2022-11-30T03:03:30.269Z,7.60
2022-11-30T03:05:57.580Z,7.60
2022-11-30T03:08:35.282Z,7.60
2022-11-30T03:11:10.274Z,7.60
2022-11-30T03:13:43.309Z,7.60
2022-11-30T03:16:13.631Z,7.60
2022-11-30T03:18:47.300Z,7.60
2022-11-30T03:21:20.332Z,7.70
2022-11-30T03:23:55.363Z,7.70
2022-11-30T03:26:28.536Z,7.70
2022-11-30T03:29:02.390Z,7.70
2022-11-30T03:31:29.596Z,7.70
2022-11-30T03:34:03.338Z,7.70
2022-11-30T03:36:36.349Z,7.70
2022-11-30T03:39:03.626Z,7.70
2022-11-30T03:41:37.358Z,7.70
2022-11-30T03:44:04.283Z,7.70
2022-11-30T03:46:37.430Z,7.70
2022-11-30T03:49:04.265Z,7.70
2022-11-30T03:51:31.088Z,7.70
2022-11-30T03:54:04.417Z,7.70
2022-11-30T03:56:31.195Z,7.70
2022-11-30T03:59:04.401Z,7.70
2022-11-30T04:01:37.425Z,7.70
2022-11-30T04:04:04.403Z,7.70
2022-11-30T04:06:37.355Z,7.70
2022-11-30T04:09:04.259Z,7.70
2022-11-30T04:11:31.141Z,7.70
2022-11-30T04:14:04.456Z,7.70
2022-11-30T04:16:31.281Z,7.70
2022-11-30T04:19:04.453Z,7.70
2022-11-30T04:21:31.269Z,7.60
2022-11-30T04:24:04.431Z,7.70
2022-11-30T04:26:31.494Z,7.70
2022-11-30T04:29:04.734Z,7.70
2022-11-30T04:31:38.475Z,7.70
2022-11-30T04:34:11.431Z,7.70
2022-11-30T04:36:38.361Z,7.70
2022-11-30T04:39:11.431Z,7.60
2022-11-30T04:41:39.440Z,7.60
2022-11-30T04:44:12.457Z,7.60
2022-11-30T04:46:39.300Z,7.50
2022-11-30T04:49:12.492Z,7.50
2022-11-30T04:51:50.438Z,7.50
2022-11-30T04:54:23.548Z,7.50
2022-11-30T04:56:50.300Z,7.50
2022-11-30T04:59:17.330Z,7.50
2022-11-30T05:01:50.588Z,7.50
2022-11-30T05:04:26.575Z,7.40
2022-11-30T05:06:57.520Z,7.50
2022-11-30T05:09:35.497Z,7.50
2022-11-30T05:12:18.492Z,7.50
2022-11-30T05:14:51.517Z,7.50
2022-11-30T05:17:18.434Z,7.50
2022-11-30T05:19:45.195Z,7.50
2022-11-30T05:22:18.508Z,7.50
2022-11-30T05:24:45.887Z,7.50
2022-11-30T05:27:22.698Z,7.50
2022-11-30T05:29:49.796Z,7.50
2022-11-30T05:32:29.584Z,7.50
2022-11-30T05:35:02.504Z,7.50
2022-11-30T05:37:35.508Z,7.50
2022-11-30T05:40:08.520Z,7.40
2022-11-30T05:42:35.310Z,7.40
2022-11-30T05:45:08.543Z,7.30
2022-11-30T05:47:41.556Z,7.30
2022-11-30T05:50:08.768Z,7.20
2022-11-30T05:52:42.585Z,7.10
2022-11-30T05:55:09.578Z,7.10
2022-11-30T05:57:47.565Z,7.10
2022-11-30T06:00:21.677Z,7.10
2022-11-30T06:02:57.378Z,7.00
2022-11-30T06:05:31.544Z,7.00
2022-11-30T06:08:06.607Z,7.00
2022-11-30T06:10:33.375Z,7.00
2022-11-30T06:13:13.627Z,6.90
2022-11-30T06:15:41.810Z,6.90
2022-11-30T06:18:16.610Z,6.90
2022-11-30T06:20:43.445Z,6.90
2022-11-30T06:23:10.244Z,6.80
2022-11-30T06:25:43.659Z,6.80
2022-11-30T06:28:17.646Z,6.70
2022-11-30T06:30:50.622Z,6.70
2022-11-30T06:33:22.844Z,6.60
2022-11-30T06:35:56.593Z,6.60
2022-11-30T06:38:24.470Z,6.60
2022-11-30T06:40:57.618Z,6.50
2022-11-30T06:43:24.468Z,6.60
2022-11-30T06:45:57.733Z,6.60
2022-11-30T06:48:24.633Z,6.70
2022-11-30T06:50:57.657Z,6.80
2022-11-30T06:53:25.146Z,6.80
2022-11-30T06:55:52.412Z,6.80
2022-11-30T06:58:25.658Z,6.90
2022-11-30T07:00:52.814Z,6.90
2022-11-30T07:03:39.685Z,6.90
2022-11-30T07:06:14.724Z,6.90
2022-11-30T07:08:48.762Z,6.90
2022-11-30T07:11:22.871Z,7.00
2022-11-30T07:13:49.694Z,7.00
2022-11-30T07:16:22.739Z,7.00
2022-11-30T07:18:49.562Z,7.00
2022-11-30T07:21:16.322Z,7.00
2022-11-30T07:24:07.738Z,7.10
2022-11-30T07:26:41.712Z,7.10
2022-11-30T07:29:09.016Z,7.10
2022-11-30T07:31:49.800Z,7.10
2022-11-30T07:34:16.752Z,7.10
2022-11-30T07:36:49.707Z,7.10
2022-11-30T07:39:16.476Z,7.10
2022-11-30T07:41:50.721Z,7.20
2022-11-30T07:44:17.535Z,7.20
2022-11-30T07:46:44.481Z,7.20
2022-11-30T07:49:17.756Z,7.20
2022-11-30T07:51:44.625Z,7.20
2022-11-30T07:54:17.791Z,7.30
2022-11-30T07:56:45.003Z,7.30
2022-11-30T07:59:18.763Z,7.30
2022-11-30T08:01:45.721Z,7.30
2022-11-30T08:04:14.070Z,7.30
2022-11-30T08:06:47.766Z,7.30
2022-11-30T08:09:21.099Z,7.30
2022-11-30T08:12:01.771Z,7.30
2022-11-30T08:14:50.409Z,7.20
2022-11-30T08:17:24.935Z,7.30
2022-11-30T08:19:58.837Z,7.30
2022-11-30T08:22:25.891Z,7.30
2022-11-30T08:24:58.837Z,7.40
2022-11-30T08:27:26.387Z,7.50
2022-11-30T08:29:59.784Z,7.50
2022-11-30T08:32:28.532Z,7.50
2022-11-30T08:35:01.960Z,7.50
2022-11-30T08:37:29.852Z,7.50
2022-11-30T08:39:56.735Z,7.50
2022-11-30T08:42:37.834Z,7.60
2022-11-30T08:45:11.907Z,7.60
2022-11-30T08:47:39.231Z,7.70
2022-11-30T08:50:06.804Z,7.70
2022-11-30T08:52:47.003Z,7.80
2022-11-30T08:55:13.922Z,7.80
2022-11-30T08:57:40.800Z,7.90
2022-11-30T09:00:14.956Z,7.90
2022-11-30T09:02:41.852Z,7.90
2022-11-30T09:05:08.794Z,8.00
2022-11-30T09:07:42.117Z,8.00
2022-11-30T09:10:09.359Z,8.00
2022-11-30T09:12:48.989Z,8.10
2022-11-30T09:15:15.803Z,8.10
2022-11-30T09:17:44.250Z,8.20
2022-11-30T09:20:17.912Z,8.20
2022-11-30T09:22:44.787Z,8.20
2022-11-30T09:25:17.928Z,8.30
2022-11-30T09:27:44.789Z,8.30
2022-11-30T09:30:11.945Z,8.30
2022-11-30T09:32:45.017Z,8.40
2022-11-30T09:35:13.080Z,8.40
2022-11-30T09:37:40.354Z,8.40
2022-11-30T09:40:15.103Z,8.50
2022-11-30T09:42:50.760Z,8.50
2022-11-30T09:45:34.908Z,8.60
2022-11-30T09:48:24.912Z,8.60
2022-11-30T09:50:53.145Z,8.70
2022-11-30T09:53:37.903Z,8.70
2022-11-30T09:56:21.007Z,8.80
2022-11-30T09:58:56.346Z,8.80
2022-11-30T10:01:32.802Z,8.80
2022-11-30T10:04:01.614Z,8.80
2022-11-30T10:06:55.005Z,8.90
2022-11-30T10:09:39.940Z,8.90
2022-11-30T10:12:30.085Z,8.90
2022-11-30T10:15:23.937Z,8.90
2022-11-30T10:18:03.098Z,8.90
2022-11-30T10:20:51.882Z,8.90
2022-11-30T10:23:31.082Z,9.00
2022-11-30T10:26:03.663Z,9.00
2022-11-30T10:28:56.971Z,9.00
2022-11-30T10:31:35.957Z,9.00
2022-11-30T10:34:26.053Z,9.10
2022-11-30T10:37:28.120Z,9.10
2022-11-30T10:40:04.026Z,9.10
2022-11-30T10:42:45.992Z,9.10
2022-11-30T10:45:23.043Z,9.20
2022-11-30T10:48:17.172Z,9.20
2022-11-30T10:50:44.091Z,9.30
2022-11-30T10:53:12.458Z,9.40
2022-11-30T10:56:19.150Z,9.50
2022-11-30T10:58:56.812Z,9.50
2022-11-30T11:01:46.272Z,9.50
2022-11-30T11:04:13.368Z,9.50
2022-11-30T11:06:43.335Z,9.60
2022-11-30T11:09:39.110Z,9.60
2022-11-30T11:12:14.847Z,9.60
2022-11-30T11:14:48.253Z,9.60
2022-11-30T11:17:18.167Z,9.70
2022-11-30T11:19:46.927Z,9.70
2022-11-30T11:22:36.277Z,9.70
2022-11-30T11:25:41.097Z,9.70
2022-11-30T11:28:18.857Z,9.70
2022-11-30T11:30:53.144Z,9.70
2022-11-30T11:33:29.685Z,9.70
2022-11-30T11:36:21.120Z,9.70
2022-11-30T11:38:51.461Z,9.70
2022-11-30T11:41:40.148Z,9.70
2022-11-30T11:44:27.083Z,9.70
2022-11-30T11:47:06.278Z,9.70
2022-11-30T11:49:36.689Z,9.70
2022-11-30T11:52:20.138Z,9.70
2022-11-30T11:54:49.496Z,9.70
2022-11-30T11:57:19.982Z,9.70
2022-11-30T12:00:16.136Z,9.60
2022-11-30T12:03:19.342Z,9.60
2022-11-30T12:06:02.168Z,9.50
2022-11-30T12:08:38.229Z,9.50
2022-11-30T12:11:27.393Z,9.60
2022-11-30T12:13:57.296Z,9.60
2022-11-30T12:17:12.340Z,9.50
2022-11-30T12:20:07.099Z,9.50
2022-11-30T12:23:18.393Z,9.50
2022-11-30T12:25:54.015Z,9.60
2022-11-30T12:28:44.215Z,9.80
2022-11-30T12:31:18.381Z,9.90
2022-11-30T12:34:27.204Z,9.90
2022-11-30T12:37:06.738Z,9.90
2022-11-30T12:40:16.301Z,9.80
2022-11-30T12:42:46.259Z,9.60
2022-11-30T12:45:29.240Z,9.40
2022-11-30T12:48:28.583Z,9.30
2022-11-30T12:51:30.179Z,9.20
2022-11-30T12:54:23.811Z,9.10
2022-11-30T12:57:11.383Z,9.00
2022-11-30T13:00:01.189Z,9.00
2022-11-30T13:03:10.337Z,8.90
2022-11-30T13:05:54.541Z,8.90
2022-11-30T13:08:40.504Z,8.90
2022-11-30T13:11:13.568Z,8.80
2022-11-30T13:13:55.433Z,8.90
2022-11-30T13:16:24.726Z,9.00
2022-11-30T13:19:02.337Z,9.00
2022-11-30T13:21:37.424Z,9.00
2022-11-30T13:24:35.235Z,9.10
2022-11-30T13:27:19.538Z,9.10
2022-11-30T13:29:53.381Z,9.00
2022-11-30T13:32:56.815Z,8.90
2022-11-30T13:35:46.479Z,8.90
2022-11-30T13:41:15.288Z,8.90
2022-11-30T13:43:53.438Z,8.90
2022-11-30T13:46:23.820Z,8.80
2022-11-30T13:49:29.362Z,8.70
2022-11-30T13:52:21.555Z,8.60
2022-11-30T13:54:52.319Z,8.50
2022-11-30T13:57:25.473Z,8.40
2022-11-30T14:00:03.333Z,8.30
2022-11-30T14:02:43.026Z,8.20
2022-11-30T14:05:25.471Z,8.10
2022-11-30T14:07:59.926Z,8.10
2022-11-30T14:10:51.503Z,8.10
2022-11-30T14:13:22.790Z,8.10
2022-11-30T14:16:07.360Z,8.10
2022-11-30T14:18:42.729Z,8.10
2022-11-30T14:21:41.384Z,8.10
2022-11-30T14:24:19.374Z,8.10
2022-11-30T14:26:55.367Z,8.10
2022-11-30T14:29:34.469Z,8.00
2022-11-30T14:32:18.980Z,7.90
2022-11-30T14:34:58.470Z,7.90
2022-11-30T14:37:35.553Z,7.90
2022-11-30T14:40:17.171Z,7.90
2022-11-30T14:42:59.397Z,7.90
2022-11-30T14:45:34.065Z,7.90
2022-11-30T14:48:20.394Z,7.80
2022-11-30T14:50:54.899Z,7.70
2022-11-30T14:53:49.359Z,7.60
2022-11-30T14:56:48.810Z,7.50
2022-11-30T14:59:51.628Z,7.40
2022-11-30T15:02:38.717Z,7.40
2022-11-30T15:05:15.495Z,7.30
2022-11-30T15:07:43.717Z,7.20
2022-11-30T15:10:29.347Z,7.20
2022-11-30T15:12:58.033Z,7.10
2022-11-30T15:15:40.195Z,7.10
2022-11-30T15:18:20.663Z,7.00
2022-11-30T15:21:06.486Z,7.00
2022-11-30T15:23:40.503Z,6.90
2022-11-30T15:26:18.544Z,6.90
2022-11-30T15:29:02.497Z,6.80
2022-11-30T15:31:37.465Z,6.80
2022-11-30T15:34:12.502Z,6.70
2022-11-30T15:36:39.605Z,6.70
2022-11-30T15:39:08.038Z,6.70
2022-11-30T15:41:42.583Z,6.60
2022-11-30T15:44:38.930Z,6.60
2022-11-30T15:47:29.600Z,6.50
2022-11-30T15:49:56.507Z,6.40
2022-11-30T15:52:35.521Z,6.40
2022-11-30T15:55:04.075Z,6.30
2022-11-30T15:58:05.826Z,6.30
2022-11-30T16:00:32.650Z,6.20
2022-11-30T16:03:18.654Z,6.20
2022-11-30T16:05:57.100Z,6.20
2022-11-30T16:08:37.588Z,6.10
2022-11-30T16:11:08.042Z,6.10
2022-11-30T16:13:48.662Z,6.10
2022-11-30T16:16:22.118Z,6.10
2022-11-30T16:18:56.664Z,6.00
2022-11-30T16:21:23.517Z,6.00
2022-11-30T16:23:50.425Z,5.90
2022-11-30T16:29:18.648Z,5.90
2022-11-30T16:31:45.778Z,5.90
2022-11-30T16:34:13.501Z,5.80
2022-11-30T16:36:46.887Z,5.80
2022-11-30T16:39:13.785Z,5.80
2022-11-30T16:41:40.734Z,5.80
2022-11-30T16:44:20.637Z,5.70
2022-11-30T16:46:48.799Z,5.70
2022-11-30T16:49:15.704Z,5.70
2022-11-30T16:51:49.570Z,5.70
2022-11-30T16:54:22.667Z,5.70
2022-11-30T16:56:49.508Z,5.60
2022-11-30T16:59:22.686Z,5.60
2022-11-30T17:01:53.290Z,5.60
2022-11-30T17:04:32.625Z,5.50
2022-11-30T17:07:04.475Z,5.60
2022-11-30T17:09:40.663Z,5.50
2022-11-30T17:12:09.639Z,5.50
2022-11-30T17:14:42.611Z,5.50
2022-11-30T17:17:10.357Z,5.50
2022-11-30T17:19:45.605Z,5.50
2022-11-30T17:22:18.632Z,5.40
2022-11-30T17:24:46.116Z,5.40
2022-11-30T17:27:26.619Z,5.40
2022-11-30T17:29:59.624Z,5.40
2022-11-30T17:32:27.953Z,5.40
2022-11-30T17:35:01.818Z,5.30
2022-11-30T17:37:28.678Z,5.30
2022-11-30T17:40:01.639Z,5.30
2022-11-30T17:42:29.231Z,5.30
2022-11-30T17:45:02.676Z,5.30
2022-11-30T17:47:29.955Z,5.30
2022-11-30T17:50:10.679Z,5.30
2022-11-30T17:52:37.524Z,5.30
2022-11-30T17:55:11.677Z,5.30
2022-11-30T17:57:51.685Z,5.40
2022-11-30T18:00:19.109Z,5.50
2022-11-30T18:02:55.778Z,5.60
2022-11-30T18:05:22.716Z,5.70
2022-11-30T18:07:56.907Z,5.70
2022-11-30T18:10:23.770Z,5.60
2022-11-30T18:12:50.862Z,5.50
2022-11-30T18:15:24.764Z,5.50
2022-11-30T18:17:55.110Z,5.40
2022-11-30T18:20:28.714Z,5.50
2022-11-30T18:23:05.728Z,5.60
2022-11-30T18:25:41.728Z,5.60
2022-11-30T18:28:08.545Z,5.70
2022-11-30T18:30:43.805Z,5.80
2022-11-30T18:33:17.843Z,5.80
2022-11-30T18:35:44.836Z,5.90
2022-11-30T18:38:15.715Z,5.90
2022-11-30T18:40:49.894Z,5.80
2022-11-30T18:43:16.736Z,5.70
2022-11-30T18:45:43.635Z,5.60
2022-11-30T18:48:17.934Z,5.60
2022-11-30T18:50:44.876Z,5.50
2022-11-30T18:53:15.232Z,5.50
2022-11-30T18:55:51.805Z,5.50
2022-11-30T18:58:24.847Z,5.60
2022-11-30T19:00:51.636Z,5.70
2022-11-30T19:03:25.817Z,5.80
2022-11-30T19:05:54.429Z,5.90
2022-11-30T19:08:27.829Z,6.00
2022-11-30T19:10:54.698Z,6.00
2022-11-30T19:13:28.974Z,6.10
2022-11-30T19:15:56.064Z,6.10
2022-11-30T19:18:29.801Z,6.20
2022-11-30T19:20:56.912Z,6.20
2022-11-30T19:23:30.829Z,6.30
2022-11-30T19:26:01.796Z,6.30
2022-11-30T19:28:36.813Z,6.30
2022-11-30T19:31:12.507Z,6.30
2022-11-30T19:33:48.013Z,6.40
2022-11-30T19:36:29.839Z,6.40
2022-11-30T19:39:05.834Z,6.40
2022-11-30T19:41:33.568Z,6.40
2022-11-30T19:44:08.896Z,6.40
2022-11-30T19:46:35.859Z,6.40
2022-11-30T19:49:09.882Z,6.30
2022-11-30T19:51:36.932Z,6.20
2022-11-30T19:54:10.969Z,6.00
2022-11-30T19:56:39.066Z,5.80
2022-11-30T19:59:12.942Z,5.80
2022-11-30T20:01:39.969Z,5.70
2022-11-30T20:04:14.018Z,5.60
2022-11-30T20:06:41.119Z,5.50
2022-11-30T20:09:10.075Z,5.50
2022-11-30T20:11:43.972Z,5.40
2022-11-30T20:14:16.545Z,5.40
2022-11-30T20:16:49.881Z,5.40
2022-11-30T20:19:24.055Z,5.50
2022-11-30T20:21:59.925Z,5.50
2022-11-30T20:24:26.838Z,5.40
2022-11-30T20:27:00.965Z,5.40
2022-11-30T20:29:27.888Z,5.30
2022-11-30T20:32:01.897Z,5.30
2022-11-30T20:34:37.648Z,5.30
2022-11-30T20:37:12.956Z,5.20
2022-11-30T20:39:45.831Z,5.20
2022-11-30T20:42:19.934Z,5.10
2022-11-30T20:44:47.206Z,5.10
2022-11-30T20:47:20.996Z,5.10
2022-11-30T20:49:56.086Z,5.10
2022-11-30T20:52:22.966Z,5.00
2022-11-30T20:54:50.097Z,5.00
2022-11-30T20:57:23.980Z,5.00
2022-11-30T20:59:56.954Z,5.00
2022-11-30T21:02:24.508Z,4.90
2022-11-30T21:04:58.040Z,4.90
2022-11-30T21:07:37.129Z,4.90
2022-11-30T21:10:05.393Z,4.80
2022-11-30T21:12:39.010Z,4.80
2022-11-30T21:15:06.952Z,4.90
2022-11-30T21:17:39.989Z,4.90
2022-11-30T21:20:07.819Z,4.90
2022-11-30T21:22:41.070Z,5.00
2022-11-30T21:25:11.463Z,5.00
2022-11-30T21:27:45.133Z,5.10
2022-11-30T21:30:12.725Z,5.00
2022-11-30T21:32:48.174Z,5.00
2022-11-30T21:35:15.256Z,5.00
2022-11-30T21:37:51.072Z,4.90
2022-11-30T21:40:18.185Z,4.80
2022-11-30T21:42:47.812Z,4.80
2022-11-30T21:45:21.068Z,4.70
2022-11-30T21:48:16.078Z,4.70
2022-11-30T21:50:42.957Z,4.70
2022-11-30T21:53:16.115Z,4.70
2022-11-30T21:55:43.114Z,4.70
2022-11-30T21:58:17.131Z,4.60
2022-11-30T22:00:44.225Z,4.60
2022-11-30T22:03:13.661Z,4.60
2022-11-30T22:05:49.065Z,4.50
2022-11-30T22:08:22.208Z,4.50
2022-11-30T22:10:56.074Z,4.50
2022-11-30T22:13:29.150Z,4.50
2022-11-30T22:16:05.682Z,4.50
2022-11-30T22:18:39.196Z,4.40
2022-11-30T22:21:07.212Z,4.40
2022-11-30T22:23:35.790Z,4.40
2022-11-30T22:26:24.080Z,4.40
2022-11-30T22:28:54.717Z,4.40
2022-11-30T22:31:32.179Z,4.40
2022-11-30T22:33:59.464Z,4.30
2022-11-30T22:36:37.163Z,4.30
2022-11-30T22:39:23.112Z,4.30
2022-11-30T22:41:58.149Z,4.30
2022-11-30T22:44:33.189Z,4.20
2022-11-30T22:47:06.241Z,4.20
2022-11-30T22:49:33.250Z,4.20
2022-11-30T22:52:07.127Z,4.20
2022-11-30T22:54:40.226Z,4.10
2022-11-30T22:57:13.130Z,4.10
2022-11-30T22:59:39.954Z,4.10
2022-11-30T23:02:06.731Z,4.10
2022-11-30T23:04:41.352Z,4.10
2022-11-30T23:07:17.188Z,4.10
2022-11-30T23:09:50.440Z,4.00
2022-11-30T23:12:36.070Z,4.00
2022-11-30T23:15:13.166Z,4.00
2022-11-30T23:17:46.168Z,4.00
2022-11-30T23:20:20.211Z,4.00
2022-11-30T23:22:47.038Z,3.90
2022-11-30T23:25:13.896Z,3.90
2022-11-30T23:27:54.266Z,3.90
2022-11-30T23:30:21.139Z,3.90
2022-11-30T23:32:54.378Z,3.90
2022-11-30T23:35:28.164Z,3.90
2022-11-30T23:38:01.174Z,3.90
2022-11-30T23:40:28.216Z,3.90
2022-11-30T23:43:01.254Z,3.90
2022-11-30T23:45:28.062Z,3.90
2022-11-30T23:48:01.198Z,3.90
2022-11-30T23:50:28.005Z,3.90
2022-11-30T23:52:55.130Z,3.90
2022-11-30T23:55:29.196Z,4.00
2022-11-30T23:58:02.240Z,4.10
